createdAt,value
2017-05-21T00:00:16.275Z,65.94
2017-05-21T00:00:42.372Z,66.03
2017-05-21T00:01:08.532Z,66.13
2017-05-21T00:01:34.624Z,65.26
2017-05-21T00:02:00.712Z,65.45
2017-05-21T00:02:26.822Z,65.65
2017-05-21T00:02:52.944Z,65.74
2017-05-21T00:03:19.034Z,65.65
2017-05-21T00:03:45.141Z,65.65
2017-05-21T00:04:11.239Z,65.74
2017-05-21T00:04:37.356Z,65.74
2017-05-21T00:05:03.513Z,65.36
2017-05-21T00:05:29.630Z,65.74
2017-05-21T00:05:55.738Z,65.74
2017-05-21T00:06:21.857Z,66.03
2017-05-21T00:06:47.948Z,65.84
2017-05-21T00:07:14.054Z,65.74
2017-05-21T00:07:40.181Z,66.22
2017-05-21T00:08:06.324Z,65.94
2017-05-21T00:08:32.453Z,65.84
2017-05-21T00:08:58.618Z,65.84
2017-05-21T00:09:24.732Z,65.84
2017-05-21T00:09:50.877Z,66.03
2017-05-21T00:10:16.984Z,65.36
2017-05-21T00:10:43.098Z,65.55
2017-05-21T00:11:09.201Z,66.22
2017-05-21T00:11:35.293Z,65.84
2017-05-21T00:12:01.422Z,65.74
2017-05-21T00:12:27.554Z,65.36
2017-05-21T00:12:53.691Z,65.45
2017-05-21T00:13:19.791Z,65.74
2017-05-21T00:13:45.903Z,65.36
2017-05-21T00:14:11.988Z,65.26
2017-05-21T00:14:38.111Z,66.03
2017-05-21T00:15:04.269Z,65.84
2017-05-21T00:15:30.415Z,65.84
2017-05-21T00:15:56.506Z,65.94
2017-05-21T00:16:22.607Z,65.94
2017-05-21T00:16:48.732Z,65.94
2017-05-21T00:17:14.865Z,66.13
2017-05-21T00:17:40.982Z,65.74
2017-05-21T00:18:07.131Z,65.65
2017-05-21T00:18:33.293Z,66.13
2017-05-21T00:18:59.412Z,66.03
2017-05-21T00:19:25.503Z,66.13
2017-05-21T00:19:51.666Z,66.03
2017-05-21T00:20:17.815Z,66.03
2017-05-21T00:20:43.903Z,65.84
2017-05-21T00:21:10.013Z,65.84
2017-05-21T00:21:36.138Z,65.94
2017-05-21T00:22:02.226Z,66.03
2017-05-21T00:22:28.328Z,66.03
2017-05-21T00:22:54.490Z,65.36
2017-05-21T00:23:20.653Z,65.65
2017-05-21T00:23:46.778Z,65.45
2017-05-21T00:24:12.911Z,65.45
2017-05-21T00:24:39.050Z,65.45
2017-05-21T00:25:05.196Z,65.36
2017-05-21T00:25:31.305Z,65.65
2017-05-21T00:25:57.423Z,66.13
2017-05-21T00:26:23.514Z,65.94
2017-05-21T00:26:49.650Z,65.84
2017-05-21T00:27:15.748Z,65.94
2017-05-21T00:27:41.877Z,65.94
2017-05-21T00:28:08.018Z,65.88
2017-05-21T00:28:34.117Z,65.74
2017-05-21T00:29:00.258Z,65.45
2017-05-21T00:29:26.383Z,65.55
2017-05-21T00:29:52.551Z,65.55
2017-05-21T00:30:18.662Z,65.65
2017-05-21T00:30:44.757Z,65.65
2017-05-21T00:31:10.844Z,65.74
2017-05-21T00:31:36.952Z,65.55
2017-05-21T00:32:03.079Z,65.45
2017-05-21T00:32:29.172Z,65.45
2017-05-21T00:32:55.275Z,66.03
2017-05-21T00:33:21.389Z,65.84
2017-05-21T00:33:47.526Z,66.03
2017-05-21T00:34:13.678Z,66.13
2017-05-21T00:34:39.822Z,66.32
2017-05-21T00:35:05.981Z,66.03
2017-05-21T00:35:32.106Z,65.94
2017-05-21T00:35:58.196Z,66.22
2017-05-21T00:36:24.297Z,66.13
2017-05-21T00:36:50.431Z,66.13
2017-05-21T00:37:16.517Z,65.94
2017-05-21T00:37:42.616Z,66.22
2017-05-21T00:38:08.749Z,66.41
2017-05-21T00:38:34.868Z,66.32
2017-05-21T00:39:00.994Z,66.32
2017-05-21T00:39:27.134Z,65.84
2017-05-21T00:39:53.242Z,66.03
2017-05-21T00:40:19.372Z,65.94
2017-05-21T00:40:45.458Z,66.41
2017-05-21T00:41:11.557Z,66.32
2017-05-21T00:41:37.662Z,66.22
2017-05-21T00:42:03.780Z,66.22
2017-05-21T00:42:29.875Z,66.7
2017-05-21T00:42:56.008Z,66.32
2017-05-21T00:43:22.100Z,66.22
2017-05-21T00:43:48.192Z,66.22
2017-05-21T00:44:14.295Z,66.41
2017-05-21T00:44:40.419Z,66.51
2017-05-21T00:45:06.555Z,66.61
2017-05-21T00:45:32.673Z,66.51
2017-05-21T00:45:58.795Z,66.61
2017-05-21T00:46:24.929Z,66.89
2017-05-21T00:46:51.025Z,66.8
2017-05-21T00:47:17.163Z,66.89
2017-05-21T00:47:43.302Z,66.8
2017-05-21T00:48:09.449Z,66.7
2017-05-21T00:48:35.563Z,66.89
2017-05-21T00:49:01.697Z,66.99
2017-05-21T00:49:27.879Z,66.89
2017-05-21T00:49:54.007Z,66.89
2017-05-21T00:50:20.195Z,67.27
2017-05-21T00:50:46.242Z,66.89
2017-05-21T00:51:12.349Z,66.99
2017-05-21T00:51:38.471Z,67.76
2017-05-21T00:52:04.563Z,67.27
2017-05-21T00:52:30.723Z,67.08
2017-05-21T00:52:56.851Z,66.7
2017-05-21T00:53:22.942Z,66.99
2017-05-21T00:53:49.044Z,66.89
2017-05-21T00:54:15.178Z,66.57
2017-05-21T00:54:41.269Z,66.99
2017-05-21T00:55:07.367Z,67.08
2017-05-21T00:55:33.464Z,67.85
2017-05-21T00:55:59.602Z,67.43
2017-05-21T00:56:25.726Z,67.43
2017-05-21T00:56:51.817Z,67.43
2017-05-21T00:57:17.918Z,67.63
2017-05-21T00:57:44.051Z,67.24
2017-05-21T00:58:10.190Z,67.56
2017-05-21T00:58:36.315Z,67.34
2017-05-21T00:59:02.475Z,67.43
2017-05-21T00:59:28.587Z,67.43
2017-05-21T00:59:54.711Z,67.63
2017-05-21T01:00:20.846Z,67.43
2017-05-21T01:00:46.964Z,68.01
2017-05-21T01:01:13.097Z,67.53
2017-05-21T01:01:39.184Z,67.53
2017-05-21T01:02:05.306Z,67.63
2017-05-21T01:02:31.444Z,67.91
2017-05-21T01:02:57.587Z,68.01
2017-05-21T01:03:23.707Z,67.82
2017-05-21T01:03:49.896Z,68.01
2017-05-21T01:04:15.995Z,67.91
2017-05-21T01:04:42.083Z,67.63
2017-05-21T01:05:08.216Z,67.91
2017-05-21T01:05:34.439Z,67.82
2017-05-21T01:06:00.530Z,67.91
2017-05-21T01:06:26.661Z,67.82
2017-05-21T01:06:52.789Z,68.29
2017-05-21T01:07:18.905Z,68.01
2017-05-21T01:07:45.006Z,68.49
2017-05-21T01:08:11.112Z,68.29
2017-05-21T01:08:37.200Z,68.39
2017-05-21T01:09:03.330Z,68.29
2017-05-21T01:09:29.464Z,68.29
2017-05-21T01:09:55.583Z,68.2
2017-05-21T01:10:21.682Z,68.39
2017-05-21T01:10:47.811Z,68.2
2017-05-21T01:11:13.906Z,68.39
2017-05-21T01:11:40.022Z,68.58
2017-05-21T01:12:06.112Z,68.39
2017-05-21T01:12:32.213Z,68.2
2017-05-21T01:12:58.348Z,68.29
2017-05-21T01:13:24.465Z,68.39
2017-05-21T01:13:50.610Z,68.39
2017-05-21T01:14:16.744Z,68.49
2017-05-21T01:14:42.902Z,68.87
2017-05-21T01:15:09.017Z,68.96
2017-05-21T01:15:35.153Z,68.96
2017-05-21T01:16:01.249Z,68.96
2017-05-21T01:16:27.340Z,68.87
2017-05-21T01:16:53.445Z,69.15
2017-05-21T01:17:19.546Z,69.25
2017-05-21T01:17:45.644Z,69.25
2017-05-21T01:18:11.764Z,69.25
2017-05-21T01:18:37.878Z,69.06
2017-05-21T01:19:03.988Z,68.87
2017-05-21T01:19:30.131Z,68.96
2017-05-21T01:19:56.296Z,68.84
2017-05-21T01:20:22.430Z,68.96
2017-05-21T01:20:48.584Z,68.93
2017-05-21T01:21:14.722Z,69.12
2017-05-21T01:21:40.827Z,69.15
2017-05-21T01:22:06.935Z,69.41
2017-05-21T01:22:33.046Z,69.31
2017-05-21T01:22:59.168Z,69.21
2017-05-21T01:23:25.285Z,68.93
2017-05-21T01:23:51.392Z,68.93
2017-05-21T01:24:17.520Z,69.02
2017-05-21T01:24:43.635Z,68.84
2017-05-21T01:25:09.789Z,69.6
2017-05-21T01:25:35.895Z,69.31
2017-05-21T01:26:01.983Z,69.02
2017-05-21T01:26:28.134Z,69.12
2017-05-21T01:26:54.239Z,69.12
2017-05-21T01:27:20.353Z,69.41
2017-05-21T01:27:46.472Z,69.79
2017-05-21T01:28:12.607Z,69.6
2017-05-21T01:28:38.730Z,69.5
2017-05-21T01:29:04.863Z,69.89
2017-05-21T01:29:30.977Z,69.6
2017-05-21T01:29:57.100Z,69.6
2017-05-21T01:30:23.263Z,69.7
2017-05-21T01:30:49.380Z,69.7
2017-05-21T01:31:15.502Z,69.89
2017-05-21T01:31:41.631Z,69.5
2017-05-21T01:32:07.751Z,69.7
2017-05-21T01:32:33.842Z,69.6
2017-05-21T01:32:59.950Z,69.6
2017-05-21T01:33:26.073Z,69.89
2017-05-21T01:33:52.213Z,69.89
2017-05-21T01:34:18.348Z,69.5
2017-05-21T01:34:44.465Z,69.21
2017-05-21T01:35:10.571Z,69.21
2017-05-21T01:35:36.665Z,69.7
2017-05-21T01:36:02.854Z,69.6
2017-05-21T01:36:28.966Z,69.6
2017-05-21T01:36:55.063Z,69.41
2017-05-21T01:37:21.153Z,69.79
2017-05-21T01:37:47.342Z,69.6
2017-05-21T01:38:13.472Z,69.98
2017-05-21T01:38:39.611Z,69.98
2017-05-21T01:39:05.767Z,69.79
2017-05-21T01:39:31.876Z,70.07
2017-05-21T01:39:58.046Z,69.89
2017-05-21T01:40:24.168Z,69.98
2017-05-21T01:40:50.259Z,70.27
2017-05-21T01:41:16.363Z,69.6
2017-05-21T01:41:42.517Z,69.6
2017-05-21T01:42:08.634Z,69.7
2017-05-21T01:42:34.734Z,70.17
2017-05-21T01:43:00.841Z,70.17
2017-05-21T01:43:26.979Z,69.7
2017-05-21T01:43:53.128Z,69.7
2017-05-21T01:44:19.259Z,69.7
2017-05-21T01:44:45.349Z,69.98
2017-05-21T01:45:11.447Z,70.27
2017-05-21T01:45:37.571Z,69.7
2017-05-21T01:46:03.673Z,70.36
2017-05-21T01:46:29.807Z,70.07
2017-05-21T01:46:55.895Z,69.79
2017-05-21T01:47:21.993Z,69.6
2017-05-21T01:47:48.130Z,69.5
2017-05-21T01:48:14.266Z,69.79
2017-05-21T01:48:40.361Z,69.02
2017-05-21T01:49:06.553Z,69.31
2017-05-21T01:49:32.695Z,69.02
2017-05-21T01:49:58.812Z,69.21
2017-05-21T01:50:24.944Z,69.41
2017-05-21T01:50:51.042Z,69.21
2017-05-21T01:51:17.162Z,68.84
2017-05-21T01:51:43.291Z,69.21
2017-05-21T01:52:09.394Z,69.12
2017-05-21T01:52:35.484Z,69.12
2017-05-21T01:53:01.642Z,69.02
2017-05-21T01:53:27.806Z,69.41
2017-05-21T01:53:53.893Z,69.7
2017-05-21T01:54:20.044Z,69.5
2017-05-21T01:54:46.180Z,69.79
2017-05-21T01:55:12.270Z,69.41
2017-05-21T01:55:38.366Z,69.21
2017-05-21T01:56:04.498Z,69.89
2017-05-21T01:56:30.590Z,69.89
2017-05-21T01:56:56.695Z,69.31
2017-05-21T01:57:22.808Z,69.5
2017-05-21T01:57:48.935Z,68.84
2017-05-21T01:58:15.098Z,69.21
2017-05-21T01:58:41.220Z,69.02
2017-05-21T01:59:07.313Z,69.12
2017-05-21T01:59:33.471Z,69.21
2017-05-21T01:59:59.617Z,69.25
2017-05-21T02:00:25.705Z,69.31
2017-05-21T02:00:51.816Z,69.31
2017-05-21T02:01:17.913Z,69.12
2017-05-21T02:01:44.003Z,68.87
2017-05-21T02:02:10.137Z,69.21
2017-05-21T02:02:36.233Z,68.84
2017-05-21T02:03:02.392Z,68.84
2017-05-21T02:03:28.535Z,68.93
2017-05-21T02:03:54.679Z,69.02
2017-05-21T02:04:20.789Z,68.55
2017-05-21T02:04:46.884Z,68.96
2017-05-21T02:05:12.975Z,68.35
2017-05-21T02:05:39.108Z,68.16
2017-05-21T02:06:05.236Z,68.26
2017-05-21T02:06:31.379Z,68.26
2017-05-21T02:06:57.503Z,68.2
2017-05-21T02:07:23.668Z,68.45
2017-05-21T02:07:49.756Z,68.45
2017-05-21T02:08:15.853Z,68.29
2017-05-21T02:08:41.967Z,68.39
2017-05-21T02:09:08.156Z,68.29
2017-05-21T02:09:34.258Z,68.26
2017-05-21T02:10:00.398Z,67.97
2017-05-21T02:10:26.499Z,68.35
2017-05-21T02:10:52.631Z,68.49
2017-05-21T02:11:18.717Z,68.07
2017-05-21T02:11:44.819Z,67.91
2017-05-21T02:12:10.925Z,67.97
2017-05-21T02:12:37.039Z,68.16
2017-05-21T02:13:03.161Z,67.78
2017-05-21T02:13:29.335Z,67.91
2017-05-21T02:13:55.466Z,67.88
2017-05-21T02:14:21.656Z,67.88
2017-05-21T02:14:47.769Z,68.45
2017-05-21T02:15:13.892Z,68.07
2017-05-21T02:15:39.998Z,68.45
2017-05-21T02:16:06.089Z,68.35
2017-05-21T02:16:32.186Z,68.26
2017-05-21T02:16:58.319Z,68.16
2017-05-21T02:17:24.414Z,68.35
2017-05-21T02:17:50.552Z,68.45
2017-05-21T02:18:16.660Z,68.16
2017-05-21T02:18:42.758Z,68.55
2017-05-21T02:19:08.886Z,68.93
2017-05-21T02:19:35.033Z,68.74
2017-05-21T02:20:01.198Z,69.12
2017-05-21T02:20:27.302Z,69.02
2017-05-21T02:20:53.423Z,69.41
2017-05-21T02:21:19.537Z,69.6
2017-05-21T02:21:45.673Z,70.07
2017-05-21T02:22:11.792Z,69.7
2017-05-21T02:22:37.882Z,70.17
2017-05-21T02:23:04.013Z,69.98
2017-05-21T02:23:30.140Z,69.85
2017-05-21T02:23:56.253Z,70.71
2017-05-21T02:24:22.363Z,70.52
2017-05-21T02:24:48.507Z,71.09
2017-05-21T02:25:14.695Z,70.52
2017-05-21T02:25:40.818Z,71
2017-05-21T02:26:06.909Z,71.28
2017-05-21T02:26:33.041Z,71.28
2017-05-21T02:26:59.143Z,71.19
2017-05-21T02:27:25.281Z,71.09
2017-05-21T02:27:51.442Z,71.47
2017-05-21T02:28:17.545Z,71.38
2017-05-21T02:28:43.655Z,71.19
2017-05-21T02:29:09.754Z,71.38
2017-05-21T02:29:35.890Z,70.9
2017-05-21T02:30:02.027Z,71
2017-05-21T02:30:28.130Z,71.38
2017-05-21T02:30:54.223Z,71.57
2017-05-21T02:31:20.347Z,71.09
2017-05-21T02:31:46.452Z,71.67
2017-05-21T02:32:12.565Z,71.19
2017-05-21T02:32:38.665Z,71.19
2017-05-21T02:33:04.825Z,70.9
2017-05-21T02:33:30.942Z,71.38
2017-05-21T02:33:57.062Z,71.47
2017-05-21T02:34:23.226Z,71.67
2017-05-21T02:34:49.372Z,71.47
2017-05-21T02:35:15.537Z,71.38
2017-05-21T02:35:41.669Z,71.38
2017-05-21T02:36:07.765Z,71.38
2017-05-21T02:37:03.706Z,71.38
2017-05-21T02:37:29.802Z,71.57
2017-05-21T02:37:55.918Z,71.67
2017-05-21T02:38:22.078Z,71.28
2017-05-21T02:38:48.182Z,71.47
2017-05-21T02:39:14.267Z,71.67
2017-05-21T02:39:40.398Z,71.86
2017-05-21T02:40:06.556Z,71.76
2017-05-21T02:40:32.671Z,72.05
2017-05-21T02:40:58.797Z,71.86
2017-05-21T02:41:24.932Z,72.24
2017-05-21T02:41:51.022Z,72.33
2017-05-21T02:42:17.153Z,72.24
2017-05-21T02:42:43.268Z,71.95
2017-05-21T02:43:09.370Z,72.33
2017-05-21T02:43:35.473Z,72.3
2017-05-21T02:44:01.561Z,72.72
2017-05-21T02:44:27.662Z,72.39
2017-05-21T02:44:53.796Z,72.43
2017-05-21T02:45:19.877Z,71.95
2017-05-21T02:45:45.972Z,72.33
2017-05-21T02:46:12.080Z,71.67
2017-05-21T02:46:38.201Z,71.57
2017-05-21T02:47:04.290Z,72.05
2017-05-21T02:47:30.391Z,72.24
2017-05-21T02:47:56.538Z,72.72
2017-05-21T02:48:22.673Z,72.05
2017-05-21T02:48:48.789Z,72.14
2017-05-21T02:49:14.909Z,72.14
2017-05-21T02:49:41.050Z,72.53
2017-05-21T02:50:07.158Z,72.62
2017-05-21T02:50:33.270Z,72.53
2017-05-21T02:50:59.408Z,71.76
2017-05-21T02:51:25.505Z,71.76
2017-05-21T02:51:52.019Z,71.95
2017-05-21T02:52:18.124Z,71.95
2017-05-21T02:52:44.243Z,73
2017-05-21T02:53:10.393Z,72.43
2017-05-21T02:53:36.537Z,72.62
2017-05-21T02:54:02.650Z,72.24
2017-05-21T02:54:28.786Z,72.05
2017-05-21T02:54:54.885Z,72.14
2017-05-21T02:55:21.015Z,72.24
2017-05-21T02:55:47.145Z,72.24
2017-05-21T02:56:13.271Z,72.24
2017-05-21T02:56:39.407Z,71.76
2017-05-21T02:57:05.563Z,72.81
2017-05-21T02:57:31.698Z,71.86
2017-05-21T02:57:57.786Z,72.24
2017-05-21T02:58:23.886Z,72.72
2017-05-21T02:58:50.060Z,72.43
2017-05-21T02:59:16.190Z,72.43
2017-05-21T02:59:42.316Z,72.33
2017-05-21T03:00:08.430Z,72.43
2017-05-21T03:00:34.533Z,72.14
2017-05-21T03:01:00.638Z,72.43
2017-05-21T03:01:26.724Z,72.11
2017-05-21T03:01:52.824Z,72.24
2017-05-21T03:02:18.929Z,72.14
2017-05-21T03:02:45.044Z,72.33
2017-05-21T03:03:11.168Z,72.33
2017-05-21T03:03:37.303Z,72.2
2017-05-21T03:04:03.423Z,72.62
2017-05-21T03:04:29.557Z,72.91
2017-05-21T03:04:55.646Z,72.87
2017-05-21T03:05:21.742Z,72.62
2017-05-21T03:05:47.850Z,72.72
2017-05-21T03:06:13.939Z,72.72
2017-05-21T03:06:40.037Z,73
2017-05-21T03:07:06.170Z,72.72
2017-05-21T03:07:32.265Z,72.87
2017-05-21T03:07:58.406Z,72.72
2017-05-21T03:08:24.567Z,72.68
2017-05-21T03:08:50.690Z,72.68
2017-05-21T03:09:16.830Z,72.68
2017-05-21T03:09:42.936Z,73
2017-05-21T03:10:09.030Z,72.68
2017-05-21T03:10:35.134Z,73.16
2017-05-21T03:11:01.255Z,73.07
2017-05-21T03:11:27.342Z,72.97
2017-05-21T03:11:53.505Z,72.78
2017-05-21T03:12:19.602Z,72.58
2017-05-21T03:12:45.741Z,73.16
2017-05-21T03:13:11.846Z,72.87
2017-05-21T03:13:37.975Z,72.97
2017-05-21T03:14:04.137Z,73.35
2017-05-21T03:14:30.297Z,73.54
2017-05-21T03:14:56.455Z,73.25
2017-05-21T03:15:22.549Z,73.25
2017-05-21T03:15:48.646Z,73.25
2017-05-21T03:16:14.732Z,73.35
2017-05-21T03:16:40.866Z,73.35
2017-05-21T03:17:06.994Z,73.44
2017-05-21T03:17:33.108Z,73.25
2017-05-21T03:17:59.241Z,73.25
2017-05-21T03:18:25.404Z,73.35
2017-05-21T03:18:51.590Z,73.25
2017-05-21T03:19:17.714Z,73.63
2017-05-21T03:19:43.819Z,73.16
2017-05-21T03:20:09.933Z,73.29
2017-05-21T03:20:36.053Z,73.25
2017-05-21T03:21:02.159Z,73.19
2017-05-21T03:21:28.252Z,73
2017-05-21T03:21:54.367Z,72.58
2017-05-21T03:22:20.474Z,72.39
2017-05-21T03:22:46.627Z,72.72
2017-05-21T03:23:12.741Z,72.62
2017-05-21T03:23:38.877Z,72.58
2017-05-21T03:24:05.005Z,72.81
2017-05-21T03:24:31.093Z,72.81
2017-05-21T03:24:57.203Z,72.62
2017-05-21T03:25:23.331Z,72.11
2017-05-21T03:25:49.443Z,72.05
2017-05-21T03:26:15.565Z,72.53
2017-05-21T03:26:41.682Z,72.24
2017-05-21T03:27:07.817Z,72.14
2017-05-21T03:27:33.919Z,72.53
2017-05-21T03:28:00.080Z,72.33
2017-05-21T03:28:26.208Z,71.67
2017-05-21T03:28:52.396Z,72.43
2017-05-21T03:29:18.484Z,71.76
2017-05-21T03:29:44.630Z,72.72
2017-05-21T03:30:10.733Z,72.33
2017-05-21T03:30:36.823Z,72.24
2017-05-21T03:31:02.938Z,72.24
2017-05-21T03:31:29.046Z,72.33
2017-05-21T03:31:55.189Z,72.24
2017-05-21T03:32:21.321Z,72.14
2017-05-21T03:32:47.457Z,71.95
2017-05-21T03:33:13.608Z,71.72
2017-05-21T03:33:39.744Z,72.2
2017-05-21T03:34:05.885Z,72.3
2017-05-21T03:34:31.983Z,72.2
2017-05-21T03:34:58.170Z,72.39
2017-05-21T03:35:24.288Z,71.92
2017-05-21T03:35:50.379Z,72.01
2017-05-21T03:36:16.511Z,72.01
2017-05-21T03:36:42.607Z,72.3
2017-05-21T03:37:08.721Z,72.3
2017-05-21T03:37:34.853Z,72.11
2017-05-21T03:38:00.972Z,72.2
2017-05-21T03:38:27.129Z,72.2
2017-05-21T03:38:53.272Z,72.39
2017-05-21T03:39:19.412Z,72.24
2017-05-21T03:39:45.521Z,72.24
2017-05-21T03:40:11.699Z,72.14
2017-05-21T03:40:37.814Z,72.3
2017-05-21T03:41:03.920Z,72.11
2017-05-21T03:41:30.019Z,72.68
2017-05-21T03:41:56.108Z,72.58
2017-05-21T03:42:22.210Z,72.2
2017-05-21T03:42:48.316Z,72.2
2017-05-21T03:43:14.436Z,72.11
2017-05-21T03:43:40.564Z,72.11
2017-05-21T03:44:06.680Z,72.78
2017-05-21T03:44:32.836Z,72.39
2017-05-21T03:44:58.990Z,72.58
2017-05-21T03:45:25.102Z,72.68
2017-05-21T03:45:51.206Z,72.68
2017-05-21T03:46:17.341Z,72.49
2017-05-21T03:46:43.451Z,72.53
2017-05-21T03:47:09.573Z,72.39
2017-05-21T03:47:35.706Z,72.49
2017-05-21T03:48:01.820Z,73.07
2017-05-21T03:48:27.965Z,72.49
2017-05-21T03:48:54.062Z,72.97
2017-05-21T03:49:20.191Z,72.97
2017-05-21T03:49:46.351Z,72.87
2017-05-21T03:50:12.438Z,72.68
2017-05-21T03:50:38.538Z,73.16
2017-05-21T03:51:04.645Z,73.16
2017-05-21T03:51:30.734Z,73.25
2017-05-21T03:51:56.857Z,73.25
2017-05-21T03:52:22.990Z,73.16
2017-05-21T03:52:49.409Z,73.25
2017-05-21T03:53:15.526Z,73.63
2017-05-21T03:53:41.635Z,73.25
2017-05-21T03:54:07.785Z,73.63
2017-05-21T03:54:33.915Z,73.25
2017-05-21T03:55:00.030Z,73.44
2017-05-21T03:55:26.126Z,73.25
2017-05-21T03:55:52.260Z,73.16
2017-05-21T03:56:18.386Z,73.25
2017-05-21T03:56:44.473Z,73.35
2017-05-21T03:57:10.610Z,73.16
2017-05-21T03:57:36.737Z,73.35
2017-05-21T03:58:02.853Z,72.97
2017-05-21T03:58:29.013Z,73.25
2017-05-21T03:58:55.141Z,73.16
2017-05-21T03:59:21.258Z,73.25
2017-05-21T03:59:47.385Z,73.25
2017-05-21T04:00:13.528Z,73.63
2017-05-21T04:00:39.639Z,73.16
2017-05-21T04:01:05.758Z,73.25
2017-05-21T04:01:31.848Z,73.44
2017-05-21T04:01:57.951Z,73.35
2017-05-21T04:02:24.080Z,73.54
2017-05-21T04:02:50.168Z,73.54
2017-05-21T04:03:16.321Z,73.16
2017-05-21T04:03:42.425Z,73.63
2017-05-21T04:04:08.567Z,74.02
2017-05-21T04:04:34.713Z,73.83
2017-05-21T04:05:00.819Z,74.3
2017-05-21T04:05:26.911Z,74.11
2017-05-21T04:05:53.032Z,73.54
2017-05-21T04:06:19.164Z,73.44
2017-05-21T04:06:45.259Z,73.16
2017-05-21T04:07:11.372Z,73.35
2017-05-21T04:07:37.483Z,73.44
2017-05-21T04:08:03.657Z,73.25
2017-05-21T04:08:29.771Z,73.35
2017-05-21T04:08:55.873Z,73.54
2017-05-21T04:09:22.001Z,73.35
2017-05-21T04:09:48.140Z,73.63
2017-05-21T04:10:14.344Z,73.16
2017-05-21T04:10:40.449Z,73.25
2017-05-21T04:11:06.541Z,73.25
2017-05-21T04:11:32.636Z,73.25
2017-05-21T04:11:58.726Z,73.25
2017-05-21T04:12:24.834Z,73.25
2017-05-21T04:12:50.933Z,73.25
2017-05-21T04:13:17.090Z,73.16
2017-05-21T04:13:43.193Z,73.35
2017-05-21T04:14:09.331Z,72.97
2017-05-21T04:14:35.438Z,73.25
2017-05-21T04:15:01.567Z,73.25
2017-05-21T04:15:27.675Z,72.78
2017-05-21T04:15:53.788Z,72.97
2017-05-21T04:16:19.910Z,73.35
2017-05-21T04:16:46.007Z,73.35
2017-05-21T04:17:12.161Z,73.44
2017-05-21T04:17:38.268Z,73.25
2017-05-21T04:18:04.404Z,73.35
2017-05-21T04:18:30.556Z,73.25
2017-05-21T04:18:56.736Z,73.25
2017-05-21T04:19:23.001Z,73.25
2017-05-21T04:19:49.033Z,73.07
2017-05-21T04:20:15.166Z,72.78
2017-05-21T04:20:41.258Z,72.58
2017-05-21T04:21:07.373Z,72.49
2017-05-21T04:21:33.507Z,72.78
2017-05-21T04:21:59.632Z,72.87
2017-05-21T04:22:25.734Z,72.68
2017-05-21T04:22:52.248Z,72.58
2017-05-21T04:23:18.415Z,73.35
2017-05-21T04:23:44.551Z,73.25
2017-05-21T04:24:10.646Z,73.25
2017-05-21T04:24:36.732Z,73.35
2017-05-21T04:25:02.950Z,73.25
2017-05-21T04:25:29.047Z,73.44
2017-05-21T04:25:55.163Z,73.35
2017-05-21T04:26:21.296Z,73.35
2017-05-21T04:26:47.427Z,73.25
2017-05-21T04:27:13.512Z,73.35
2017-05-21T04:27:39.671Z,73.35
2017-05-21T04:28:05.810Z,72.97
2017-05-21T04:28:31.919Z,73.54
2017-05-21T04:28:58.095Z,73.35
2017-05-21T04:29:24.257Z,73.54
2017-05-21T04:29:50.365Z,73.16
2017-05-21T04:30:16.490Z,73.63
2017-05-21T04:30:42.584Z,73.44
2017-05-21T04:31:08.710Z,73.44
2017-05-21T04:31:34.844Z,73.25
2017-05-21T04:32:00.931Z,73.44
2017-05-21T04:32:27.030Z,73.25
2017-05-21T04:32:53.193Z,73.44
2017-05-21T04:33:19.362Z,73.07
2017-05-21T04:33:45.516Z,73.35
2017-05-21T04:34:11.655Z,72.97
2017-05-21T04:34:37.841Z,72.58
2017-05-21T04:35:03.998Z,72.68
2017-05-21T04:35:30.083Z,72.78
2017-05-21T04:35:56.182Z,72.39
2017-05-21T04:36:22.288Z,72.87
2017-05-21T04:36:48.402Z,72.87
2017-05-21T04:37:14.548Z,73.16
2017-05-21T04:37:40.657Z,73.44
2017-05-21T04:38:06.750Z,73.16
2017-05-21T04:38:32.892Z,73.25
2017-05-21T04:38:59.073Z,73.35
2017-05-21T04:39:25.202Z,73.07
2017-05-21T04:39:51.334Z,73.07
2017-05-21T04:40:17.476Z,72.97
2017-05-21T04:40:43.573Z,72.68
2017-05-21T04:41:09.704Z,72.97
2017-05-21T04:41:35.799Z,72.68
2017-05-21T04:42:01.914Z,72.68
2017-05-21T04:42:28.049Z,73.25
2017-05-21T04:42:54.147Z,73.35
2017-05-21T04:43:20.284Z,73.25
2017-05-21T04:43:46.418Z,73.16
2017-05-21T04:44:12.571Z,73.16
2017-05-21T04:44:38.720Z,72.58
2017-05-21T04:45:04.840Z,72.68
2017-05-21T04:45:30.929Z,72.58
2017-05-21T04:45:57.038Z,72.78
2017-05-21T04:46:23.133Z,72.78
2017-05-21T04:46:49.224Z,72.58
2017-05-21T04:47:15.329Z,72.78
2017-05-21T04:47:41.430Z,72.68
2017-05-21T04:48:07.568Z,72.39
2017-05-21T04:48:33.728Z,72.49
2017-05-21T04:48:59.863Z,72.11
2017-05-21T04:49:25.950Z,72.11
2017-05-21T04:49:52.077Z,72.2
2017-05-21T04:50:18.236Z,72.72
2017-05-21T04:50:44.330Z,71.57
2017-05-21T04:51:10.427Z,72.33
2017-05-21T04:51:36.531Z,72.24
2017-05-21T04:52:02.624Z,71.86
2017-05-21T04:52:28.713Z,72.24
2017-05-21T04:52:54.852Z,71.67
2017-05-21T04:53:21.000Z,71.38
2017-05-21T04:53:47.118Z,71.28
2017-05-21T04:54:13.276Z,71.57
2017-05-21T04:54:39.432Z,71.28
2017-05-21T04:55:05.522Z,71.47
2017-05-21T04:55:31.650Z,71.67
2017-05-21T04:55:57.765Z,70.9
2017-05-21T04:56:23.903Z,71
2017-05-21T04:56:49.998Z,71.19
2017-05-21T04:57:16.089Z,71.19
2017-05-21T04:57:42.251Z,71
2017-05-21T04:58:08.380Z,70.52
2017-05-21T04:58:34.495Z,70.56
2017-05-21T04:59:00.622Z,70.65
2017-05-21T04:59:26.783Z,70.65
2017-05-21T04:59:52.893Z,70.84
2017-05-21T05:00:18.994Z,70.75
2017-05-21T05:00:45.100Z,70.75
2017-05-21T05:01:11.215Z,70.23
2017-05-21T05:01:37.318Z,70.17
2017-05-21T05:02:03.433Z,70.75
2017-05-21T05:02:29.564Z,70.56
2017-05-21T05:02:55.700Z,70.56
2017-05-21T05:03:21.843Z,69.98
2017-05-21T05:03:47.993Z,70.36
2017-05-21T05:04:14.152Z,70.07
2017-05-21T05:04:40.289Z,69.89
2017-05-21T05:05:06.431Z,69.79
2017-05-21T05:05:32.537Z,69.98
2017-05-21T05:05:58.682Z,69.98
2017-05-21T05:06:24.799Z,69.89
2017-05-21T05:06:50.931Z,69.79
2017-05-21T05:07:17.029Z,70.17
2017-05-21T05:07:43.163Z,69.98
2017-05-21T05:08:09.280Z,70.17
2017-05-21T05:08:35.399Z,69.98
2017-05-21T05:09:01.531Z,69.98
2017-05-21T05:09:27.649Z,69.89
2017-05-21T05:09:53.737Z,69.98
2017-05-21T05:10:19.871Z,70.36
2017-05-21T05:10:46.024Z,70.17
2017-05-21T05:11:12.141Z,69.89
2017-05-21T05:11:38.270Z,70.17
2017-05-21T05:12:04.368Z,70.75
2017-05-21T05:12:30.483Z,70.27
2017-05-21T05:12:56.663Z,70.56
2017-05-21T05:13:22.769Z,70.65
2017-05-21T05:13:48.857Z,70.65
2017-05-21T05:14:14.956Z,70.94
2017-05-21T05:14:41.062Z,70.75
2017-05-21T05:15:07.150Z,70.56
2017-05-21T05:15:33.249Z,70.75
2017-05-21T05:15:59.352Z,70.46
2017-05-21T05:16:25.526Z,70.56
2017-05-21T05:16:51.636Z,70.56
2017-05-21T05:17:17.771Z,70.94
2017-05-21T05:17:43.899Z,70.36
2017-05-21T05:18:10.029Z,70.65
2017-05-21T05:18:36.145Z,71.13
2017-05-21T05:19:02.290Z,70.75
2017-05-21T05:19:28.451Z,70.94
2017-05-21T05:19:54.544Z,71.03
2017-05-21T05:20:20.659Z,70.94
2017-05-21T05:20:46.768Z,71.03
2017-05-21T05:21:12.867Z,70.75
2017-05-21T05:21:39.013Z,70.65
2017-05-21T05:22:05.119Z,71.03
2017-05-21T05:22:31.217Z,71.13
2017-05-21T05:22:57.308Z,70.65
2017-05-21T05:23:23.814Z,71.13
2017-05-21T05:23:49.953Z,71.32
2017-05-21T05:24:16.063Z,71.03
2017-05-21T05:24:42.214Z,71.13
2017-05-21T05:25:08.303Z,71.51
2017-05-21T05:25:34.409Z,71.03
2017-05-21T05:26:00.535Z,71.51
2017-05-21T05:26:26.651Z,71.22
2017-05-21T05:26:52.807Z,71.22
2017-05-21T05:27:18.914Z,71.32
2017-05-21T05:27:45.078Z,71.32
2017-05-21T05:28:11.185Z,71.32
2017-05-21T05:28:37.344Z,71.03
2017-05-21T05:29:03.484Z,71.03
2017-05-21T05:29:29.587Z,70.84
2017-05-21T05:29:55.677Z,71.22
2017-05-21T05:30:21.806Z,71.22
2017-05-21T05:30:47.911Z,71.32
2017-05-21T05:31:13.998Z,71.22
2017-05-21T05:31:40.096Z,71.7
2017-05-21T05:32:06.210Z,71.13
2017-05-21T05:32:32.300Z,71.13
2017-05-21T05:32:58.423Z,71.42
2017-05-21T05:33:24.610Z,71.22
2017-05-21T05:33:50.734Z,71.61
2017-05-21T05:34:16.851Z,71.51
2017-05-21T05:34:42.987Z,71.32
2017-05-21T05:35:09.111Z,71.42
2017-05-21T05:35:35.248Z,71.42
2017-05-21T05:36:01.354Z,71.22
2017-05-21T05:36:27.482Z,71.22
2017-05-21T05:36:53.595Z,71.51
2017-05-21T05:37:19.700Z,70.75
2017-05-21T05:37:45.832Z,70.75
2017-05-21T05:38:11.917Z,71.13